createdAt,value
2018-08-09T00:02:05.709Z,58.31
2018-08-09T00:04:35.574Z,59.53
2018-08-09T00:07:05.877Z,59.85
2018-08-09T00:09:35.834Z,61.84
2018-08-09T00:12:05.844Z,60.67
2018-08-09T00:14:35.862Z,57.15
2018-08-09T00:17:06.186Z,56.08
2018-08-09T00:19:35.981Z,55.28
2018-08-09T00:22:06.013Z,54.74
2018-08-09T00:24:35.998Z,53.42
2018-08-09T00:27:06.190Z,56.24
2018-08-09T00:29:36.087Z,56.53
2018-08-09T00:32:05.973Z,54.64
2018-08-09T00:34:35.962Z,56.43
2018-08-09T00:37:06.382Z,58.33
2018-08-09T00:39:36.515Z,57.46
2018-08-09T00:42:06.402Z,61.04
2018-08-09T00:44:36.291Z,59.89
2018-08-09T00:47:06.712Z,59.10
2018-08-09T00:49:36.718Z,57.00
2018-08-09T00:52:06.758Z,56.24
2018-08-09T00:54:36.895Z,54.82
2018-08-09T00:57:06.866Z,54.68
2018-08-09T00:59:36.889Z,54.30
2018-08-09T01:02:11.980Z,55.21
2018-08-09T01:04:42.197Z,56.85
2018-08-09T01:07:12.103Z,59.67
2018-08-09T01:09:42.528Z,59.23
2018-08-09T01:12:12.550Z,59.80
2018-08-09T01:14:42.845Z,59.60
2018-08-09T01:17:13.169Z,58.64
2018-08-09T01:19:43.202Z,58.26
2018-08-09T01:22:13.445Z,59.62
2018-08-09T01:24:43.484Z,60.07
2018-08-09T01:27:13.692Z,59.18
2018-08-09T01:29:43.617Z,56.95
2018-08-09T01:32:13.564Z,56.80
2018-08-09T01:34:43.518Z,55.69
2018-08-09T01:37:13.911Z,54.37
2018-08-09T01:39:43.780Z,54.29
2018-08-09T01:42:30.121Z,54.88
2018-08-09T01:45:00.116Z,56.57
2018-08-09T01:47:30.210Z,57.83
2018-08-09T01:50:00.395Z,57.72
2018-08-09T01:52:31.226Z,58.97
2018-08-09T01:55:01.444Z,56.22
2018-08-09T01:57:32.379Z,55.00
2018-08-09T02:00:02.718Z,56.61
2018-08-09T02:02:32.743Z,57.27
2018-08-09T02:05:02.778Z,59.26
2018-08-09T02:07:33.078Z,62.35
2018-08-09T02:10:03.112Z,61.97
2018-08-09T02:12:33.474Z,63.35
2018-08-09T02:15:03.342Z,62.53
2018-08-09T02:17:33.278Z,62.52
2018-08-09T02:20:03.252Z,62.99
2018-08-09T02:22:33.434Z,62.29
2018-08-09T02:25:03.375Z,59.72
2018-08-09T02:27:33.288Z,58.13
2018-08-09T02:30:03.115Z,57.23
2018-08-09T02:32:33.270Z,61.18
2018-08-09T02:35:03.538Z,60.10
2018-08-09T02:37:33.553Z,57.77
2018-08-09T02:40:03.466Z,57.80
2018-08-09T02:42:33.378Z,59.19
2018-08-09T02:45:03.423Z,56.76
2018-08-09T02:47:33.444Z,57.25
2018-08-09T02:50:03.306Z,58.19
2018-08-09T02:52:33.596Z,58.01
2018-08-09T02:55:03.811Z,62.13
2018-08-09T02:57:33.778Z,63.97
2018-08-09T03:00:03.683Z,62.05
2018-08-09T03:02:33.896Z,64.77
2018-08-09T03:05:03.800Z,64.34
2018-08-09T03:07:33.787Z,63.66
2018-08-09T03:10:03.803Z,64.34
2018-08-09T03:12:34.066Z,63.05
2018-08-09T03:15:03.959Z,65.10
2018-08-09T03:17:33.855Z,65.20
2018-08-09T03:20:03.954Z,66.54
2018-08-09T03:22:33.819Z,64.45
2018-08-09T03:25:03.782Z,60.79
2018-08-09T03:27:34.018Z,62.42
2018-08-09T03:30:04.063Z,64.51
2018-08-09T03:32:34.090Z,67.40
2018-08-09T03:35:04.062Z,69.29
2018-08-09T03:37:34.014Z,65.13
2018-08-09T03:40:03.974Z,61.56
2018-08-09T03:42:34.028Z,65.58
2018-08-09T03:45:04.001Z,66.68
2018-08-09T03:47:33.965Z,63.48
2018-08-09T03:50:04.673Z,64.08
2018-08-09T03:52:34.553Z,65.03
2018-08-09T03:55:05.176Z,62.78
2018-08-09T03:57:35.130Z,61.62
2018-08-09T04:00:07.197Z,60.17
2018-08-09T04:02:37.481Z,59.55
2018-08-09T04:05:08.354Z,65.65
2018-08-09T04:07:38.110Z,66.36
2018-08-09T04:10:08.735Z,63.66
2018-08-09T04:12:38.762Z,64.51
2018-08-09T04:15:10.489Z,64.96
2018-08-09T04:17:40.478Z,67.31
2018-08-09T04:20:10.539Z,65.23
2018-08-09T04:22:40.351Z,67.75
2018-08-09T04:25:11.117Z,67.89
2018-08-09T04:27:41.149Z,64.33
2018-08-09T04:30:11.091Z,62.27
2018-08-09T04:32:41.089Z,60.26
2018-08-09T04:35:11.291Z,63.64
2018-08-09T04:37:41.191Z,60.65
2018-08-09T04:40:11.389Z,64.85
2018-08-09T04:42:41.290Z,63.78
2018-08-09T04:45:11.978Z,62.78
2018-08-09T04:47:41.957Z,61.37
2018-08-09T04:50:12.867Z,65.60
2018-08-09T04:52:42.962Z,63.03
2018-08-09T04:55:13.284Z,67.13
2018-08-09T04:57:43.318Z,66.52
2018-08-09T05:00:13.203Z,63.79
2018-08-09T05:02:43.384Z,65.48
2018-08-09T05:05:13.395Z,66.28
2018-08-09T05:07:43.618Z,67.16
2018-08-09T05:10:13.594Z,68.08
2018-08-09T05:12:44.062Z,66.76
2018-08-09T05:15:14.754Z,67.71
2018-08-09T05:17:45.258Z,67.91
2018-08-09T05:20:15.875Z,67.04
2018-08-09T05:22:46.024Z,67.32
2018-08-09T05:25:16.106Z,66.70
2018-08-09T05:27:46.109Z,66.99
2018-08-09T05:30:18.148Z,64.62
2018-08-09T05:32:48.188Z,63.92
2018-08-09T05:35:26.633Z,61.33
2018-08-09T05:37:57.381Z,64.77
2018-08-09T05:40:27.458Z,61.28
2018-08-09T05:42:57.606Z,61.70
2018-08-09T05:45:27.550Z,65.30
2018-08-09T05:48:01.246Z,67.12
2018-08-09T05:50:31.283Z,66.14
2018-08-09T05:53:01.405Z,67.15
2018-08-09T05:55:33.384Z,65.99
2018-08-09T05:58:03.816Z,65.98
2018-08-09T06:00:33.695Z,66.57
2018-08-09T06:03:03.512Z,64.83
2018-08-09T06:05:33.915Z,63.73
2018-08-09T06:08:03.997Z,62.64
2018-08-09T06:10:33.986Z,65.33
2018-08-09T06:13:04.130Z,62.14
2018-08-09T06:15:34.202Z,63.51
2018-08-09T06:18:04.433Z,63.29
2018-08-09T06:20:34.490Z,63.69
2018-08-09T06:23:04.385Z,61.82
2018-08-09T06:25:34.517Z,62.01
2018-08-09T06:28:04.793Z,61.64
2018-08-09T06:30:37.194Z,61.52
2018-08-09T06:35:37.358Z,61.59
2018-08-09T06:38:07.685Z,60.74
2018-08-09T06:40:39.635Z,60.89
2018-08-09T06:43:09.774Z,60.14
2018-08-09T06:46:02.747Z,59.56
2018-08-09T06:48:32.860Z,59.19
2018-08-09T06:51:03.775Z,60.03
2018-08-09T06:53:34.019Z,59.36
2018-08-09T06:56:04.104Z,59.13
2018-08-09T06:58:34.326Z,59.65
2018-08-09T07:01:04.480Z,58.93
2018-08-09T07:03:34.732Z,59.16
2018-08-09T07:06:04.608Z,58.58
2018-08-09T07:11:36.185Z,59.49
2018-08-09T07:28:08.491Z,58.25
2018-08-09T07:30:38.522Z,58.45
2018-08-09T07:33:08.550Z,58.56
2018-08-09T07:36:01.668Z,57.91
2018-08-09T07:38:31.546Z,59.13
2018-08-09T07:41:01.651Z,57.78
2018-08-09T07:43:31.679Z,57.84
2018-08-09T07:46:01.534Z,56.55
2018-08-09T07:49:02.916Z,56.89
2018-08-09T07:54:40.622Z,55.78
2018-08-09T07:57:10.673Z,56.20
2018-08-09T07:59:40.644Z,56.02
2018-08-09T08:02:10.480Z,55.27
2018-08-09T08:04:40.403Z,55.08
2018-08-09T08:07:15.595Z,55.87
2018-08-09T08:09:46.420Z,55.78
2018-08-09T08:12:18.316Z,55.22
2018-08-09T08:14:48.331Z,55.73
2018-08-09T08:17:18.400Z,55.09
2018-08-09T08:19:48.274Z,55.79
2018-08-09T08:22:18.099Z,55.63
2018-08-09T08:24:48.954Z,55.18
2018-08-09T08:27:18.848Z,56.81
2018-08-09T08:29:48.579Z,57.50
2018-08-09T08:32:18.542Z,58.34
2018-08-09T08:34:48.244Z,56.93
2018-08-09T08:37:18.185Z,57.40
2018-08-09T08:39:48.130Z,57.60
2018-08-09T08:42:18.059Z,58.38
2018-08-09T08:44:47.851Z,58.45
2018-08-09T08:47:18.292Z,57.45
2018-08-09T08:49:48.130Z,56.33
2018-08-09T08:52:17.991Z,57.36
2018-08-09T08:54:47.912Z,57.16
2018-08-09T08:57:17.698Z,57.04
2018-08-09T08:59:47.573Z,55.83
2018-08-09T09:02:18.106Z,55.90
2018-08-09T09:04:48.905Z,57.08
2018-08-09T09:07:19.242Z,56.41
2018-08-09T09:09:49.021Z,56.70
2018-08-09T09:12:18.874Z,56.25
2018-08-09T09:14:48.818Z,56.42
2018-08-09T09:17:18.571Z,55.76
2018-08-09T09:19:49.480Z,56.12
2018-08-09T09:22:19.686Z,56.24
2018-08-09T09:24:49.497Z,56.34
2018-08-09T09:27:19.331Z,55.44
2018-08-09T09:29:49.172Z,56.31
2018-08-09T09:32:19.190Z,56.52
2018-08-09T09:34:49.087Z,56.30
2018-08-09T09:37:19.555Z,55.60
2018-08-09T09:39:49.478Z,54.79
2018-08-09T10:06:26.929Z,52.69
2018-08-09T10:08:56.718Z,52.94
2018-08-09T10:11:27.847Z,53.36
2018-08-09T10:13:57.704Z,52.50
2018-08-09T10:16:30.172Z,53.31
2018-08-09T10:18:59.930Z,52.18
2018-08-09T10:21:30.671Z,53.17
2018-08-09T10:24:01.031Z,51.99
2018-08-09T10:26:30.854Z,52.36
2018-08-09T10:29:00.612Z,52.36
2018-08-09T10:31:31.208Z,51.74
2018-08-09T10:34:01.655Z,51.92
2018-08-09T10:36:32.249Z,51.14
2018-08-09T10:39:03.187Z,51.23
2018-08-09T10:41:33.109Z,51.36
2018-08-09T10:44:02.863Z,51.27
2018-08-09T10:46:33.140Z,51.50
2018-08-09T10:49:02.995Z,51.92
2018-08-09T10:51:32.728Z,51.50
2018-08-09T10:54:03.355Z,51.67
2018-08-09T10:56:33.192Z,51.73
2018-08-09T10:59:04.662Z,50.43
2018-08-09T11:01:34.840Z,51.23
2018-08-09T11:04:04.686Z,51.12
2018-08-09T11:06:34.817Z,51.03
2018-08-09T11:09:07.293Z,49.54
2018-08-09T11:11:37.226Z,50.58
2018-08-09T11:14:07.942Z,49.46
2018-08-09T11:16:37.625Z,50.07
2018-08-09T11:19:07.623Z,50.45
2018-08-09T11:21:37.762Z,50.69
2018-08-09T11:24:08.247Z,49.97
2018-08-09T11:26:38.218Z,49.21
2018-08-09T11:29:08.083Z,49.46
2018-08-09T11:31:37.734Z,49.67
2018-08-09T11:34:11.007Z,50.36
2018-08-09T11:36:40.727Z,50.19
2018-08-09T11:39:12.500Z,49.41
2018-08-09T11:41:42.891Z,48.81
2018-08-09T11:44:12.963Z,49.91
2018-08-09T11:46:42.815Z,49.41
2018-08-09T11:49:12.682Z,49.46
2018-08-09T11:51:42.602Z,49.85
2018-08-09T11:54:12.593Z,50.49
2018-08-09T11:56:42.576Z,48.76
2018-08-09T11:59:12.272Z,49.25
2018-08-09T12:01:44.094Z,49.18
2018-08-09T12:07:20.217Z,49.19
2018-08-09T12:09:50.584Z,49.45
2018-08-09T12:12:20.939Z,49.48
2018-08-09T12:14:51.951Z,49.00
2018-08-09T12:17:23.551Z,49.42
2018-08-09T12:19:53.410Z,49.28
2018-08-09T12:22:23.154Z,50.72
2018-08-09T12:24:53.120Z,51.16
2018-08-09T12:27:23.056Z,50.47
2018-08-09T12:29:52.881Z,51.00
2018-08-09T12:35:21.833Z,52.28
2018-08-09T12:37:51.859Z,52.68
2018-08-09T12:40:31.614Z,52.35
2018-08-09T12:43:02.652Z,52.12
2018-08-09T12:45:32.557Z,51.98
2018-08-09T12:48:02.307Z,51.50
2018-08-09T12:50:32.308Z,51.88
2018-08-09T12:53:03.034Z,52.51
2018-08-09T12:55:33.055Z,51.86
2018-08-09T12:58:02.975Z,48.86
2018-08-09T13:00:35.582Z,44.38
2018-08-09T13:03:05.599Z,46.66
2018-08-09T13:05:41.067Z,45.34
2018-08-09T13:08:14.972Z,44.88
2018-08-09T13:10:48.529Z,43.49
2018-08-09T13:13:21.471Z,43.69
2018-08-09T13:15:51.566Z,44.50
2018-08-09T13:18:23.136Z,43.67
2018-08-09T13:20:54.171Z,41.92
2018-08-09T13:23:27.767Z,43.27
2018-08-09T13:26:01.019Z,42.51
2018-08-09T13:28:31.338Z,43.50
2018-08-09T13:31:02.417Z,46.89
2018-08-09T13:33:32.991Z,50.77
2018-08-09T13:36:03.240Z,57.71
2018-08-09T13:38:33.321Z,56.26
2018-08-09T13:41:03.644Z,56.92
2018-08-09T13:43:33.746Z,56.85
2018-08-09T13:46:03.859Z,58.87
2018-08-09T13:48:34.155Z,56.88
2018-08-09T13:51:04.788Z,59.71
2018-08-09T13:53:34.982Z,58.81
2018-08-09T13:56:17.300Z,57.30
2018-08-09T13:58:47.322Z,60.59
2018-08-09T14:01:17.990Z,61.16
2018-08-09T14:03:49.248Z,63.71
2018-08-09T14:06:19.388Z,64.91
2018-08-09T14:08:49.602Z,62.85
2018-08-09T14:11:20.411Z,63.88
2018-08-09T14:13:50.517Z,67.32
2018-08-09T14:16:20.594Z,64.93
2018-08-09T14:18:54.591Z,69.61
2018-08-09T14:21:35.231Z,67.42
2018-08-09T14:24:07.639Z,66.32
2018-08-09T14:26:37.507Z,67.28
2018-08-09T14:29:08.867Z,66.42
2018-08-09T14:31:39.355Z,67.03
2018-08-09T14:34:10.255Z,64.13
2018-08-09T14:36:40.180Z,64.27
2018-08-09T14:39:11.681Z,65.56
2018-08-09T14:41:41.788Z,66.60
2018-08-09T14:44:16.829Z,66.66
2018-08-09T14:46:46.791Z,64.89
2018-08-09T14:49:16.739Z,64.78
2018-08-09T14:51:46.714Z,64.97
2018-08-09T14:54:39.701Z,64.30
2018-08-09T14:57:10.757Z,64.32
2018-08-09T14:59:41.426Z,63.56
2018-08-09T15:02:12.629Z,63.53
2018-08-09T15:04:42.722Z,64.25
2018-08-09T15:07:12.553Z,62.99
2018-08-09T15:09:42.834Z,62.30
2018-08-09T15:12:12.686Z,63.79
2018-08-09T15:14:42.564Z,62.91
2018-08-09T15:17:12.603Z,61.79
2018-08-09T15:19:42.515Z,61.00
2018-08-09T15:22:13.249Z,61.57
2018-08-09T15:24:43.169Z,61.52
2018-08-09T15:27:15.533Z,60.77
2018-08-09T15:29:45.787Z,59.52
2018-08-09T15:32:22.383Z,62.15
2018-08-09T15:34:54.484Z,61.82
2018-08-09T15:37:24.566Z,60.16
2018-08-09T15:39:54.538Z,60.19
2018-08-09T15:42:24.423Z,61.25
2018-08-09T15:44:56.332Z,62.18
2018-08-09T15:47:26.858Z,61.26
2018-08-09T15:49:56.610Z,61.82
2018-08-09T15:52:26.772Z,62.23
2018-08-09T15:54:56.892Z,61.90
2018-08-09T15:57:26.770Z,61.79
2018-08-09T15:59:56.994Z,61.27
2018-08-09T16:02:26.970Z,62.82
2018-08-09T16:04:57.152Z,61.99
2018-08-09T16:07:27.069Z,61.16
2018-08-09T16:09:57.116Z,62.79
2018-08-09T16:12:26.995Z,61.78
2018-08-09T16:14:56.847Z,63.16
2018-08-09T16:17:28.761Z,61.77
2018-08-09T16:19:58.515Z,61.97
2018-08-09T16:22:28.617Z,62.74
2018-08-09T16:24:58.469Z,61.57
2018-08-09T16:27:28.415Z,62.65
2018-08-09T16:33:08.113Z,63.31
2018-08-09T16:35:37.910Z,62.48
2018-08-09T16:38:07.814Z,61.88
2018-08-09T16:40:37.651Z,62.37
2018-08-09T16:43:08.631Z,60.90
2018-08-09T16:45:38.413Z,61.55
2018-08-09T16:48:08.509Z,59.76
2018-08-09T16:50:50.699Z,62.52
2018-08-09T16:53:20.650Z,62.61
2018-08-09T16:55:50.437Z,62.39
2018-08-09T16:58:20.615Z,60.57
2018-08-09T17:00:51.087Z,59.75
2018-08-09T17:03:26.798Z,62.32
2018-08-09T17:05:56.608Z,61.09
2018-08-09T17:11:26.849Z,59.85
2018-08-09T17:13:56.789Z,59.65
2018-08-09T17:16:26.698Z,59.90
2018-08-09T17:18:56.509Z,60.08
2018-08-09T17:21:26.383Z,58.29
2018-08-09T17:24:02.298Z,59.17
2018-08-09T17:26:32.394Z,58.38
2018-08-09T17:29:02.684Z,59.03
2018-08-09T17:35:31.642Z,58.86
2018-08-09T17:38:26.561Z,58.53
2018-08-09T17:40:57.915Z,58.50
2018-08-09T17:43:28.419Z,58.05
2018-08-09T17:46:32.271Z,59.05
2018-08-09T17:49:14.315Z,59.94
2018-08-09T17:51:44.499Z,60.51
2018-08-09T17:54:15.428Z,59.63
2018-08-09T17:56:45.850Z,60.57
2018-08-09T17:59:16.512Z,59.20
2018-08-09T18:01:46.387Z,60.46
2018-08-09T18:04:16.395Z,59.11
2018-08-09T18:09:46.134Z,59.64
2018-08-09T18:12:16.170Z,59.78
2018-08-09T18:15:14.241Z,59.88
2018-08-09T18:17:45.187Z,60.67
2018-08-09T18:20:17.223Z,61.21
2018-08-09T18:22:47.161Z,62.02
2018-08-09T18:25:17.172Z,64.51
2018-08-09T18:27:46.989Z,63.16
2018-08-09T18:30:18.517Z,66.06
2018-08-09T18:32:48.541Z,66.05
2018-08-09T18:36:26.840Z,64.26
2018-08-09T18:38:56.691Z,64.12
2018-08-09T18:44:49.025Z,62.77
2018-08-09T18:47:18.980Z,66.37
2018-08-09T18:49:49.302Z,65.89
2018-08-09T18:52:19.276Z,64.73
2018-08-09T18:54:49.870Z,64.99
2018-08-09T18:57:20.360Z,66.16
2018-08-09T18:59:50.415Z,64.54
2018-08-09T19:02:20.989Z,66.53
2018-08-09T19:04:51.264Z,65.01
2018-08-09T19:07:21.773Z,65.23
2018-08-09T19:09:51.666Z,63.57
2018-08-09T19:12:21.701Z,64.02
2018-08-09T19:14:51.442Z,63.94
2018-08-09T19:31:45.617Z,64.37
2018-08-09T19:34:15.558Z,62.40
2018-08-09T19:36:45.502Z,63.38
2018-08-09T19:39:16.093Z,63.37
2018-08-09T19:41:46.046Z,62.06
2018-08-09T19:44:22.226Z,61.96
2018-08-09T19:46:52.126Z,61.17
2018-08-09T19:49:22.146Z,60.93
2018-08-09T19:51:51.990Z,61.92
2018-08-09T19:54:21.936Z,61.54
2018-08-09T19:56:52.166Z,60.13
2018-08-09T19:59:22.002Z,60.34
2018-08-09T20:01:51.930Z,61.03
2018-08-09T20:04:21.861Z,60.89
2018-08-09T20:06:51.769Z,60.19
2018-08-09T20:09:21.545Z,60.44
2018-08-09T20:11:51.327Z,61.47
2018-08-09T20:14:21.770Z,61.05
2018-08-09T20:16:51.778Z,60.71
2018-08-09T20:19:21.666Z,60.63
2018-08-09T20:21:51.429Z,60.22
2018-08-09T20:24:24.676Z,60.82
2018-08-09T20:26:54.679Z,60.04
2018-08-09T20:29:24.416Z,60.11
2018-08-09T20:31:54.206Z,61.65
2018-08-09T20:34:24.306Z,61.41
2018-08-09T20:36:54.076Z,61.93
2018-08-09T20:39:23.887Z,61.86
2018-08-09T20:41:53.516Z,60.02
2018-08-09T20:44:23.218Z,60.49
2018-08-09T20:46:55.051Z,60.09
2018-08-09T20:49:25.044Z,59.35
2018-08-09T20:51:54.829Z,60.26
2018-08-09T20:54:25.579Z,60.88
2018-08-09T20:56:55.378Z,61.24
2018-08-09T20:59:25.102Z,60.97
2018-08-09T21:01:54.900Z,59.15
2018-08-09T21:04:24.623Z,59.77
2018-08-09T21:06:54.314Z,58.09
2018-08-09T21:09:27.847Z,58.27
2018-08-09T21:11:58.024Z,58.94
2018-08-09T21:14:27.978Z,58.82
2018-08-09T21:16:57.621Z,58.63
2018-08-09T21:19:27.259Z,59.51
2018-08-09T21:21:58.213Z,58.14
2018-08-09T21:24:28.423Z,58.59
2018-08-09T21:26:58.294Z,58.34
2018-08-09T21:29:30.724Z,57.26
2018-08-09T21:32:00.602Z,57.52
2018-08-09T21:34:30.266Z,58.56
2018-08-09T21:37:01.173Z,57.94
2018-08-09T21:39:31.012Z,58.71
2018-08-09T21:42:01.274Z,58.89
2018-08-09T21:44:31.043Z,58.94
2018-08-09T21:47:00.758Z,57.81
2018-08-09T21:49:32.126Z,59.11
2018-08-09T21:52:01.846Z,58.55
2018-08-09T21:54:31.717Z,58.02
2018-08-09T21:57:03.716Z,57.44
2018-08-09T21:59:33.708Z,58.33
2018-08-09T22:02:04.897Z,59.17
2018-08-09T22:04:38.612Z,58.95
2018-08-09T22:07:13.700Z,58.08
2018-08-09T22:09:50.985Z,58.85
2018-08-09T22:12:25.941Z,58.49
2018-08-09T22:15:08.275Z,57.51
2018-08-09T22:17:43.165Z,59.13
2018-08-09T22:20:17.903Z,59.35
2018-08-09T22:22:48.039Z,60.22
2018-08-09T22:25:17.803Z,59.49
2018-08-09T22:27:47.508Z,62.39
2018-08-09T22:30:26.634Z,60.74
2018-08-09T22:32:56.481Z,59.36
2018-08-09T22:35:26.701Z,59.31
2018-08-09T22:37:56.442Z,59.00
2018-08-09T22:40:26.206Z,59.07
2018-08-09T22:43:10.512Z,60.57
2018-08-09T22:45:46.431Z,62.11
2018-08-09T22:48:16.225Z,59.92
2018-08-09T22:51:09.879Z,60.43
2018-08-09T23:07:31.447Z,62.01
2018-08-09T23:10:01.541Z,65.32
2018-08-09T23:13:19.060Z,62.47
2018-08-09T23:15:48.806Z,64.57
2018-08-09T23:21:17.727Z,64.35
2018-08-09T23:24:05.381Z,62.90
2018-08-09T23:26:35.116Z,61.60
2018-08-09T23:29:04.946Z,64.49
2018-08-09T23:31:34.877Z,61.08
2018-08-09T23:34:04.590Z,61.71
2018-08-09T23:36:34.263Z,61.20
2018-08-09T23:39:04.679Z,62.78
2018-08-09T23:41:34.330Z,61.46
2018-08-09T23:44:04.035Z,64.37
2018-08-09T23:47:01.186Z,63.82
2018-08-09T23:49:30.873Z,65.73
2018-08-09T23:52:03.717Z,64.37
2018-08-09T23:54:33.374Z,64.19
2018-08-09T23:57:03.427Z,66.82
